createdAt,value
2018-03-22T00:00:41.511Z,24.17
2018-03-22T00:03:10.419Z,23.77
2018-03-22T00:05:39.460Z,23.35
2018-03-22T00:08:08.486Z,21.52
2018-03-22T00:10:37.534Z,22.83
2018-03-22T00:13:06.402Z,21.15
2018-03-22T00:15:35.472Z,22.15
2018-03-22T00:18:04.627Z,22.35
2018-03-22T00:20:33.510Z,22.30
2018-03-22T00:23:02.650Z,22.10
2018-03-22T00:25:31.698Z,23.38
2018-03-22T00:28:00.937Z,21.23
2018-03-22T00:30:29.996Z,21.95
2018-03-22T00:32:58.887Z,22.30
2018-03-22T00:35:28.939Z,21.62
2018-03-22T00:37:57.994Z,18.60
2018-03-22T00:40:26.994Z,18.62
2018-03-22T00:42:55.980Z,18.98
2018-03-22T00:45:24.970Z,19.10
2018-03-22T00:47:53.869Z,19.25
2018-03-22T00:50:22.837Z,17.77
2018-03-22T00:52:52.025Z,17.55
2018-03-22T00:55:20.841Z,18.35
2018-03-22T00:57:49.866Z,18.52
2018-03-22T01:00:18.796Z,15.68
2018-03-22T01:02:47.645Z,18.58
2018-03-22T01:05:16.699Z,17.20
2018-03-22T01:07:45.966Z,18.02
2018-03-22T01:10:14.826Z,17.92
2018-03-22T01:12:43.698Z,17.52
2018-03-22T01:15:12.818Z,16.75
2018-03-22T01:17:41.662Z,20.62
2018-03-22T01:20:10.615Z,19.90
2018-03-22T01:22:39.561Z,17.87
2018-03-22T01:25:08.583Z,19.92
2018-03-22T01:27:37.544Z,18.35
2018-03-22T01:33:08.614Z,17.50
2018-03-22T01:35:37.657Z,19.10
2018-03-22T01:38:06.704Z,17.08
2018-03-22T01:40:35.693Z,18.62
2018-03-22T01:43:04.803Z,19.45
2018-03-22T01:45:33.833Z,17.80
2018-03-22T01:48:02.638Z,17.25
2018-03-22T01:50:31.609Z,17.92
2018-03-22T01:53:11.984Z,16.25
2018-03-22T01:55:41.121Z,17.58
2018-03-22T01:58:10.172Z,17.33
2018-03-22T02:00:39.268Z,19.50
2018-03-22T02:03:08.183Z,16.15
2018-03-22T02:05:37.301Z,18.15
2018-03-22T02:08:06.343Z,19.90
2018-03-22T02:10:35.417Z,19.37
2018-03-22T02:13:04.401Z,20.00
2018-03-22T02:15:33.642Z,22.20
2018-03-22T02:18:02.691Z,23.45
2018-03-22T02:20:31.735Z,25.50
2018-03-22T02:23:00.910Z,25.17
2018-03-22T02:25:29.971Z,27.13
2018-03-22T02:27:59.003Z,27.20
2018-03-22T02:30:28.097Z,26.23
2018-03-22T02:32:57.249Z,26.90
2018-03-22T02:35:26.255Z,26.20
2018-03-22T02:37:55.389Z,27.40
2018-03-22T02:40:24.590Z,27.80
2018-03-22T02:42:53.645Z,28.77
2018-03-22T02:45:22.791Z,27.73
2018-03-22T02:47:51.822Z,27.40
2018-03-22T02:50:20.732Z,28.77
2018-03-22T02:52:49.957Z,24.83
2018-03-22T02:55:18.846Z,26.48
2018-03-22T02:57:47.829Z,24.65
2018-03-22T03:00:16.723Z,26.90
2018-03-22T03:02:45.989Z,25.05
2018-03-22T03:05:15.083Z,24.67
2018-03-22T03:07:44.322Z,24.75
2018-03-22T03:10:13.277Z,24.17
2018-03-22T03:12:42.107Z,22.85
2018-03-22T03:15:11.126Z,21.98
2018-03-22T03:17:40.070Z,21.20
2018-03-22T03:20:09.199Z,22.85
2018-03-22T03:22:38.182Z,23.27
2018-03-22T03:25:07.246Z,23.98
2018-03-22T03:27:36.161Z,23.95
2018-03-22T03:30:05.587Z,22.45
2018-03-22T03:32:34.726Z,23.80
2018-03-22T03:35:04.170Z,23.42
2018-03-22T03:37:33.258Z,23.75
2018-03-22T03:40:02.437Z,22.55
2018-03-22T03:42:31.526Z,23.30
2018-03-22T03:45:00.531Z,20.62
2018-03-22T03:47:29.551Z,20.20
2018-03-22T03:49:58.697Z,21.25
2018-03-22T03:52:27.589Z,19.23
2018-03-22T03:54:56.626Z,20.17
2018-03-22T03:57:25.667Z,20.85
2018-03-22T03:59:54.883Z,23.77
2018-03-22T04:02:23.893Z,22.08
2018-03-22T04:04:52.801Z,22.52
2018-03-22T04:07:21.711Z,22.05
2018-03-22T04:09:50.793Z,20.98
2018-03-22T04:12:19.846Z,22.25
2018-03-22T04:14:49.154Z,21.75
2018-03-22T04:17:18.144Z,20.08
2018-03-22T04:19:46.964Z,18.45
2018-03-22T04:22:15.895Z,16.65
2018-03-22T04:24:44.869Z,16.00
2018-03-22T04:27:13.917Z,17.08
2018-03-22T04:29:43.062Z,17.05
2018-03-22T04:32:12.002Z,16.62
2018-03-22T04:34:40.885Z,15.63
2018-03-22T04:37:09.982Z,16.37
2018-03-22T04:39:39.022Z,17.58
2018-03-22T04:42:08.478Z,12.27
2018-03-22T04:44:37.487Z,14.75
2018-03-22T04:47:06.342Z,16.05
2018-03-22T04:49:35.465Z,15.90
2018-03-22T04:52:04.657Z,16.15
2018-03-22T04:54:33.912Z,16.20
2018-03-22T04:57:02.950Z,17.25
2018-03-22T04:59:32.919Z,17.67
2018-03-22T05:02:02.001Z,17.85
2018-03-22T05:04:30.941Z,17.08
2018-03-22T05:06:59.907Z,17.65
2018-03-22T05:09:28.865Z,18.10
2018-03-22T05:11:57.844Z,18.77
2018-03-22T05:14:27.333Z,16.95
2018-03-22T05:16:56.487Z,18.45
2018-03-22T05:19:25.525Z,19.08
2018-03-22T05:21:54.725Z,18.70
2018-03-22T05:24:24.085Z,18.42
2018-03-22T05:26:53.321Z,18.77
2018-03-22T05:29:22.153Z,18.52
2018-03-22T05:31:51.291Z,18.05
2018-03-22T05:34:20.367Z,18.62
2018-03-22T05:36:49.305Z,18.73
2018-03-22T05:39:18.474Z,19.40
2018-03-22T05:41:47.598Z,23.58
2018-03-22T05:44:16.491Z,21.52
2018-03-22T05:46:45.503Z,22.77
2018-03-22T05:49:14.778Z,23.75
2018-03-22T05:51:43.829Z,22.00
2018-03-22T05:54:12.909Z,24.40
2018-03-22T05:56:41.966Z,21.85
2018-03-22T05:59:10.873Z,24.30
2018-03-22T06:01:40.043Z,25.23
2018-03-22T06:04:09.145Z,26.75
2018-03-22T06:06:38.181Z,26.42
2018-03-22T06:09:07.397Z,29.42
2018-03-22T06:11:36.639Z,28.65
2018-03-22T06:14:05.680Z,28.27
2018-03-22T06:16:34.639Z,26.90
2018-03-22T06:19:03.613Z,31.90
2018-03-22T06:21:32.723Z,31.30
2018-03-22T06:24:01.849Z,31.42
2018-03-22T06:26:31.781Z,34.22
2018-03-22T06:29:00.617Z,35.83
2018-03-22T06:31:29.768Z,35.13
2018-03-22T06:33:58.809Z,33.25
2018-03-22T06:36:27.911Z,34.50
2018-03-22T06:38:56.972Z,34.30
2018-03-22T06:41:25.879Z,35.25
2018-03-22T06:43:54.820Z,32.60
2018-03-22T06:46:23.843Z,35.28
2018-03-22T06:48:52.838Z,34.95
2018-03-22T06:51:21.781Z,35.05
2018-03-22T06:53:50.766Z,36.88
2018-03-22T06:56:19.784Z,36.40
2018-03-22T06:58:48.733Z,36.03
2018-03-22T07:01:17.991Z,40.25
2018-03-22T07:03:47.189Z,43.10
2018-03-22T07:06:16.182Z,44.35
2018-03-22T07:08:45.178Z,42.45
2018-03-22T07:11:14.063Z,38.88
2018-03-22T07:13:43.002Z,40.85
2018-03-22T07:16:11.972Z,38.55
2018-03-22T07:18:40.815Z,40.15
2018-03-22T07:21:10.086Z,41.13
2018-03-22T07:23:39.013Z,41.17
2018-03-22T07:26:08.109Z,41.58
2018-03-22T07:28:37.232Z,38.47
2018-03-22T07:31:06.209Z,37.08
2018-03-22T07:33:35.367Z,36.00
2018-03-22T07:36:04.353Z,32.55
2018-03-22T07:38:33.389Z,35.60
2018-03-22T07:41:02.251Z,32.78
2018-03-22T07:43:36.797Z,28.75
2018-03-22T07:46:05.853Z,31.27
2018-03-22T07:48:34.952Z,31.40
2018-03-22T07:51:03.889Z,30.08
2018-03-22T07:53:33.007Z,30.70
2018-03-22T07:56:02.065Z,29.60
2018-03-22T07:58:31.391Z,31.48
2018-03-22T08:01:00.306Z,32.58
2018-03-22T08:03:29.214Z,31.65
2018-03-22T08:05:58.473Z,31.02
2018-03-22T08:08:27.517Z,30.17
2018-03-22T08:10:56.622Z,32.88
2018-03-22T08:13:25.758Z,33.25
2018-03-22T08:15:54.760Z,32.03
2018-03-22T08:18:23.904Z,32.10
2018-03-22T08:20:53.073Z,29.52
2018-03-22T08:23:22.130Z,30.98
2018-03-22T08:25:51.134Z,30.83
2018-03-22T08:28:20.525Z,29.55
2018-03-22T08:30:49.622Z,29.90
2018-03-22T08:33:18.706Z,30.58
2018-03-22T08:35:47.913Z,30.92
2018-03-22T08:38:16.916Z,29.65
2018-03-22T08:40:46.082Z,32.08
2018-03-22T08:43:15.202Z,29.98
2018-03-22T08:45:44.229Z,29.70
2018-03-22T08:48:13.406Z,29.75
2018-03-22T08:50:42.701Z,30.23
2018-03-22T08:53:11.942Z,27.33
2018-03-22T08:55:41.145Z,32.17
2018-03-22T08:58:10.381Z,30.50
2018-03-22T09:00:39.689Z,29.77
2018-03-22T09:03:08.845Z,28.70
2018-03-22T09:05:38.092Z,30.55
2018-03-22T09:08:07.315Z,30.08
2018-03-22T09:10:36.762Z,30.45
2018-03-22T09:13:06.185Z,31.02
2018-03-22T09:15:35.338Z,30.50
2018-03-22T09:18:04.801Z,30.05
2018-03-22T09:20:34.082Z,30.65
2018-03-22T09:23:03.248Z,32.88
2018-03-22T09:25:32.309Z,32.40
2018-03-22T09:28:01.587Z,32.10
2018-03-22T09:30:30.702Z,30.98
2018-03-22T09:32:59.830Z,30.12
2018-03-22T09:35:29.289Z,30.85
2018-03-22T09:37:58.692Z,31.33
2018-03-22T09:40:27.825Z,29.65
2018-03-22T09:42:56.905Z,31.02
2018-03-22T09:45:26.000Z,30.98
2018-03-22T09:47:55.238Z,28.62
2018-03-22T09:50:24.648Z,29.17
2018-03-22T09:52:53.856Z,27.65
2018-03-22T09:55:23.170Z,28.48
2018-03-22T09:57:52.302Z,28.15
2018-03-22T10:00:21.574Z,28.87
2018-03-22T10:02:50.878Z,28.75
2018-03-22T10:05:20.118Z,27.48
2018-03-22T10:07:49.261Z,27.85
2018-03-22T10:10:18.423Z,27.48
2018-03-22T10:12:47.615Z,26.80
2018-03-22T10:15:16.845Z,26.15
2018-03-22T10:17:45.918Z,25.95
2018-03-22T10:20:15.199Z,22.92
2018-03-22T10:22:44.314Z,24.70
2018-03-22T10:25:13.602Z,25.37
2018-03-22T10:27:42.601Z,26.08
2018-03-22T10:30:11.846Z,25.62
2018-03-22T10:32:40.914Z,18.65
2018-03-22T10:35:10.418Z,24.05
2018-03-22T10:37:39.617Z,24.25
2018-03-22T10:40:08.767Z,23.00
2018-03-22T10:42:38.010Z,21.70
2018-03-22T10:45:07.169Z,21.92
2018-03-22T10:47:36.342Z,22.90
2018-03-22T10:50:05.677Z,22.37
2018-03-22T10:52:35.017Z,21.65
2018-03-22T10:55:04.225Z,19.87
2018-03-22T10:57:33.271Z,19.75
2018-03-22T11:00:02.519Z,20.55
2018-03-22T11:02:37.742Z,18.33
2018-03-22T11:05:06.848Z,20.52
2018-03-22T11:07:35.987Z,17.55
2018-03-22T11:10:05.205Z,19.73
2018-03-22T11:12:34.373Z,19.60
2018-03-22T11:15:03.706Z,18.73
2018-03-22T11:17:32.897Z,19.12
2018-03-22T11:20:02.146Z,18.17
2018-03-22T11:22:31.153Z,18.52
2018-03-22T11:25:00.243Z,16.40
2018-03-22T11:27:29.500Z,16.70
2018-03-22T11:29:58.591Z,17.98
2018-03-22T11:32:28.024Z,14.68
2018-03-22T11:34:57.393Z,13.82
2018-03-22T11:37:26.491Z,13.48
2018-03-22T11:39:55.533Z,14.60
2018-03-22T11:42:24.791Z,12.50
2018-03-22T11:44:53.881Z,11.12
2018-03-22T11:47:23.075Z,10.90
2018-03-22T11:49:52.393Z,12.88
2018-03-22T11:52:21.565Z,16.45
2018-03-22T11:54:51.028Z,12.45
2018-03-22T11:57:20.284Z,10.65
2018-03-22T11:59:49.389Z,12.05
2018-03-22T12:02:18.653Z,12.43
2018-03-22T12:04:47.925Z,10.95
2018-03-22T12:07:17.054Z,10.23
2018-03-22T12:09:46.393Z,11.18
2018-03-22T12:12:15.478Z,11.43
2018-03-22T12:14:44.486Z,10.57
2018-03-22T12:17:13.601Z,11.23
2018-03-22T12:19:42.846Z,11.00
2018-03-22T12:22:11.898Z,10.43
2018-03-22T12:24:40.933Z,11.82
2018-03-22T12:27:10.148Z,11.45
2018-03-22T12:29:39.126Z,11.93
2018-03-22T12:32:08.328Z,12.27
2018-03-22T12:34:37.390Z,10.32
2018-03-22T12:37:06.734Z,12.37
2018-03-22T12:39:35.858Z,12.07
2018-03-22T12:42:04.910Z,11.82
2018-03-22T12:44:34.131Z,11.18
2018-03-22T12:47:03.349Z,12.02
2018-03-22T12:49:32.550Z,11.70
2018-03-22T12:52:01.550Z,11.85
2018-03-22T12:54:30.693Z,13.32
2018-03-22T12:56:59.789Z,13.52
2018-03-22T12:59:28.886Z,14.05
2018-03-22T13:01:58.249Z,13.10
2018-03-22T13:04:27.511Z,14.35
2018-03-22T13:06:56.594Z,12.60
2018-03-22T13:09:26.169Z,14.43
2018-03-22T13:11:55.751Z,13.40
2018-03-22T13:14:25.286Z,15.63
2018-03-22T13:16:54.893Z,13.93
2018-03-22T13:19:24.049Z,15.15
2018-03-22T13:21:53.156Z,13.88
2018-03-22T13:24:22.282Z,14.52
2018-03-22T13:26:51.602Z,15.57
2018-03-22T13:29:20.718Z,15.35
2018-03-22T13:31:49.828Z,14.15
2018-03-22T13:34:18.999Z,16.23
2018-03-22T13:36:48.246Z,13.40
2018-03-22T13:39:17.537Z,12.82
2018-03-22T13:41:46.696Z,14.82
2018-03-22T13:44:16.004Z,15.82
2018-03-22T13:46:45.149Z,19.08
2018-03-22T13:49:14.238Z,15.20
2018-03-22T13:51:43.480Z,14.70
2018-03-22T13:54:12.734Z,13.98
2018-03-22T13:56:41.731Z,14.68
2018-03-22T13:59:10.889Z,13.55
2018-03-22T14:01:40.120Z,14.57
2018-03-22T14:04:09.045Z,15.50
2018-03-22T14:06:38.302Z,13.45
2018-03-22T14:09:07.494Z,13.65
2018-03-22T14:11:36.692Z,12.15
2018-03-22T14:14:05.687Z,13.00
2018-03-22T14:16:34.929Z,14.87
2018-03-22T14:19:04.203Z,15.77
2018-03-22T14:21:33.402Z,16.85
2018-03-22T14:24:02.437Z,15.73
2018-03-22T14:26:31.439Z,15.63
2018-03-22T14:29:00.525Z,16.77
2018-03-22T14:31:29.890Z,16.35
2018-03-22T14:33:58.925Z,16.17
2018-03-22T14:36:28.022Z,12.45
2018-03-22T14:38:57.376Z,16.52
2018-03-22T14:41:26.437Z,16.77
2018-03-22T14:43:55.675Z,18.00
2018-03-22T14:46:25.484Z,19.27
2018-03-22T14:48:55.137Z,18.87
2018-03-22T14:51:24.311Z,19.20
2018-03-22T14:53:53.281Z,18.83
2018-03-22T14:56:22.673Z,20.90
2018-03-22T14:58:51.780Z,20.83
2018-03-22T15:01:20.928Z,20.58
2018-03-22T15:03:50.425Z,20.92
2018-03-22T15:06:20.002Z,20.23
2018-03-22T15:08:49.124Z,20.75
2018-03-22T15:11:18.246Z,22.23
2018-03-22T15:13:47.666Z,20.52
2018-03-22T15:16:16.761Z,23.83
2018-03-22T15:18:45.814Z,22.48
2018-03-22T15:21:15.079Z,23.42
2018-03-22T15:23:44.218Z,19.37
2018-03-22T15:26:13.318Z,18.75
2018-03-22T15:28:42.448Z,18.60
2018-03-22T15:31:11.587Z,18.73
2018-03-22T15:33:40.817Z,19.30
2018-03-22T15:36:10.244Z,18.12
2018-03-22T15:38:39.356Z,13.73
2018-03-22T15:41:08.502Z,19.00
2018-03-22T15:43:37.912Z,19.35
2018-03-22T15:46:07.156Z,19.35
2018-03-22T15:48:36.144Z,18.55
2018-03-22T15:51:05.337Z,17.77
2018-03-22T15:53:34.481Z,20.35
2018-03-22T15:56:03.488Z,18.73
2018-03-22T15:58:32.618Z,17.08
2018-03-22T16:01:01.728Z,16.25
2018-03-22T16:03:31.123Z,15.73
2018-03-22T16:06:00.341Z,15.95
2018-03-22T16:08:29.630Z,16.37
2018-03-22T16:10:58.793Z,15.50
2018-03-22T16:13:27.980Z,14.38
2018-03-22T16:15:57.222Z,16.00
2018-03-22T16:18:26.268Z,12.85
2018-03-22T16:20:55.365Z,13.43
2018-03-22T16:23:24.589Z,14.18
2018-03-22T16:25:53.851Z,13.52
2018-03-22T16:28:22.952Z,14.15
2018-03-22T16:30:51.973Z,13.38
2018-03-22T16:33:21.254Z,13.68
2018-03-22T16:35:50.698Z,18.75
2018-03-22T16:38:19.859Z,14.75
2018-03-22T16:40:48.955Z,14.77
2018-03-22T16:43:18.177Z,12.55
2018-03-22T16:45:47.824Z,15.73
2018-03-22T16:48:17.045Z,15.60
2018-03-22T16:50:46.181Z,13.50
2018-03-22T16:53:15.341Z,15.35
2018-03-22T16:55:44.407Z,14.48
2018-03-22T16:58:13.592Z,15.15
2018-03-22T17:00:42.725Z,15.48
2018-03-22T17:03:12.034Z,15.65
2018-03-22T17:05:41.169Z,16.12
2018-03-22T17:08:10.587Z,16.27
2018-03-22T17:10:39.570Z,17.55
2018-03-22T17:13:08.635Z,17.20
2018-03-22T17:15:37.793Z,16.98
2018-03-22T17:18:06.745Z,16.27
2018-03-22T17:20:35.915Z,17.17
2018-03-22T17:23:04.946Z,18.15
2018-03-22T17:25:33.961Z,18.40
2018-03-22T17:28:02.947Z,18.70
2018-03-22T17:30:31.955Z,18.62
2018-03-22T17:33:01.054Z,18.95
2018-03-22T17:35:30.055Z,14.55
2018-03-22T17:37:59.037Z,15.75
2018-03-22T17:40:28.139Z,16.25
2018-03-22T17:42:57.047Z,13.13
2018-03-22T17:45:26.227Z,16.15
2018-03-22T17:47:55.337Z,16.95
2018-03-22T17:50:24.538Z,16.87
2018-03-22T17:52:53.692Z,17.98
2018-03-22T17:55:22.663Z,17.05
2018-03-22T17:57:51.844Z,13.05
2018-03-22T18:00:20.967Z,14.65
2018-03-22T18:02:49.943Z,15.55
2018-03-22T18:05:18.991Z,15.45
2018-03-22T18:07:48.022Z,15.65
2018-03-22T18:10:17.055Z,16.58
2018-03-22T18:12:46.203Z,14.68
2018-03-22T18:15:15.453Z,16.12
2018-03-22T18:17:44.600Z,15.75
2018-03-22T18:20:13.637Z,14.95
2018-03-22T18:22:42.624Z,12.45
2018-03-22T18:25:11.844Z,12.05
2018-03-22T18:27:40.861Z,11.20
2018-03-22T18:30:09.830Z,14.27
2018-03-22T18:32:38.894Z,10.38
2018-03-22T18:35:07.960Z,12.88
2018-03-22T18:37:36.937Z,16.08
2018-03-22T18:40:06.190Z,11.52
2018-03-22T18:42:35.341Z,13.07
2018-03-22T18:45:04.496Z,16.73
2018-03-22T18:47:33.561Z,14.23
2018-03-22T18:50:02.507Z,16.58
2018-03-22T18:52:31.761Z,15.07
2018-03-22T18:55:00.927Z,14.35
2018-03-22T18:57:29.837Z,17.30
2018-03-22T18:59:58.821Z,18.23
2018-03-22T19:02:28.018Z,15.68
2018-03-22T19:04:56.998Z,18.17
2018-03-22T19:07:26.043Z,16.12
2018-03-22T19:09:55.139Z,20.10
2018-03-22T19:12:24.094Z,19.42
2018-03-22T19:14:53.205Z,19.55
2018-03-22T19:17:22.289Z,19.65
2018-03-22T19:19:51.284Z,21.50
2018-03-22T19:22:20.371Z,19.62
2018-03-22T19:24:49.506Z,17.00
2018-03-22T19:27:18.692Z,18.42
2018-03-22T19:29:47.802Z,18.27
2018-03-22T19:32:16.999Z,21.08
2018-03-22T19:34:46.103Z,17.65
2018-03-22T19:37:15.234Z,17.40
2018-03-22T19:39:44.395Z,19.27
2018-03-22T19:42:13.893Z,20.52
2018-03-22T19:44:43.237Z,19.05
2018-03-22T19:47:12.222Z,17.73
2018-03-22T19:49:41.421Z,19.58
2018-03-22T19:52:10.474Z,19.30
2018-03-22T19:54:39.782Z,20.27
2018-03-22T19:57:08.755Z,18.62
2018-03-22T19:59:37.823Z,18.27
2018-03-22T20:02:07.149Z,20.23
2018-03-22T20:04:36.297Z,19.65
2018-03-22T20:07:05.274Z,21.10
2018-03-22T20:09:34.542Z,26.12
2018-03-22T20:12:03.805Z,21.65
2018-03-22T20:14:33.050Z,23.17
2018-03-22T20:17:02.367Z,20.83
2018-03-22T20:19:31.502Z,22.25
2018-03-22T20:22:00.671Z,18.42
2018-03-22T20:24:29.869Z,20.30
2018-03-22T20:26:58.961Z,19.50
2018-03-22T20:29:28.140Z,18.58
2018-03-22T20:31:57.325Z,16.20
2018-03-22T20:34:26.445Z,19.85
2018-03-22T20:36:55.423Z,19.17
2018-03-22T20:39:24.731Z,21.85
2018-03-22T20:41:53.750Z,21.50
2018-03-22T20:44:22.947Z,20.60
2018-03-22T20:46:52.239Z,21.85
2018-03-22T20:49:21.209Z,22.33
2018-03-22T20:51:50.300Z,22.95
2018-03-22T20:54:19.495Z,21.87
2018-03-22T20:56:48.626Z,22.95
2018-03-22T20:59:17.801Z,24.58
2018-03-22T21:01:46.907Z,23.00
2018-03-22T21:04:15.937Z,25.58
2018-03-22T21:06:45.017Z,22.75
2018-03-22T21:09:14.061Z,23.42
2018-03-22T21:11:43.127Z,21.55
2018-03-22T21:14:12.224Z,20.60
2018-03-22T21:16:41.357Z,20.88
2018-03-22T21:19:10.358Z,21.90
2018-03-22T21:21:39.553Z,22.10
2018-03-22T21:24:08.705Z,20.45
2018-03-22T21:26:38.019Z,23.62
2018-03-22T21:29:07.153Z,23.77
2018-03-22T21:31:36.433Z,21.42
2018-03-22T21:34:05.593Z,21.37
2018-03-22T21:36:34.735Z,20.75
2018-03-22T21:39:03.803Z,19.55
2018-03-22T21:41:34.453Z,20.30
2018-03-22T21:44:14.111Z,20.67
2018-03-22T21:46:43.319Z,20.17
2018-03-22T21:49:12.254Z,20.20
2018-03-22T21:51:41.684Z,19.35
2018-03-22T21:54:10.581Z,20.12
2018-03-22T21:56:39.747Z,20.35
2018-03-22T21:59:08.995Z,20.48
2018-03-22T22:01:38.241Z,21.85
2018-03-22T22:04:07.340Z,21.35
2018-03-22T22:06:36.592Z,20.77
2018-03-22T22:09:05.734Z,19.65
2018-03-22T22:11:34.729Z,20.85
2018-03-22T22:14:03.785Z,23.00
2018-03-22T22:16:32.732Z,21.92
2018-03-22T22:19:01.706Z,21.52
2018-03-22T22:21:30.945Z,20.20
2018-03-22T22:24:00.012Z,20.27
2018-03-22T22:26:29.201Z,19.75
2018-03-22T22:28:58.474Z,20.92
2018-03-22T22:31:27.597Z,20.50
2018-03-22T22:33:56.693Z,20.20
2018-03-22T22:36:26.074Z,19.55
2018-03-22T22:38:56.027Z,19.98
2018-03-22T22:41:25.104Z,19.02
2018-03-22T22:43:54.301Z,19.95
2018-03-22T22:46:23.461Z,17.08
2018-03-22T22:48:52.463Z,15.68
2018-03-22T22:51:21.598Z,14.50
2018-03-22T22:53:50.545Z,13.93
2018-03-22T22:56:19.626Z,14.45
2018-03-22T22:58:49.039Z,11.57
2018-03-22T23:01:18.286Z,11.02
2018-03-22T23:03:47.477Z,11.52
2018-03-22T23:06:16.576Z,11.52
2018-03-22T23:08:45.573Z,10.95
2018-03-22T23:11:14.640Z,11.75
2018-03-22T23:13:43.566Z,11.80
2018-03-22T23:16:12.755Z,10.90
2018-03-22T23:18:42.001Z,12.25
2018-03-22T23:21:22.068Z,11.23
2018-03-22T23:23:54.283Z,11.15
2018-03-22T23:26:23.509Z,10.95
2018-03-22T23:28:52.674Z,10.48
2018-03-22T23:31:21.880Z,12.23
2018-03-22T23:33:51.011Z,10.88
2018-03-22T23:36:19.974Z,9.63
2018-03-22T23:38:49.501Z,10.38
2018-03-22T23:41:18.603Z,10.13
2018-03-22T23:43:47.649Z,10.23
2018-03-22T23:46:16.896Z,10.77
2018-03-22T23:48:46.053Z,12.23
2018-03-22T23:51:14.995Z,11.07
2018-03-22T23:53:44.038Z,10.77
2018-03-22T23:56:13.279Z,11.23
2018-03-22T23:58:42.405Z,11.48
